Starlight, Indiana
Current Conditions -  °F | °C
As of 4:11 PM on Sunday 23 Nov 2014 (Local Time) from KLOU Reporting Station
Light Rain Light Rain  
Wind Chill: 54°   Ceiling: 1100
Heat Index: 54°   Visibility: 5mi
Dew Point: 51°   Wind: 7mph
Humidity: 90%   Direction: 120°ESE
Pressure: 29.53"   Gusts: 17mph
Location:  38.4554°N, 85.9137°W
Report Text: KLOU 232111Z 12006G15KT 5SM -RA BR OVC011 12/11 A2953 RMK AO2 P0003 T01220106
Loading
Personal Weather Stations






























Interactive Weather Map New forecast layout! Learn more

10-Day Weather Forecast

Advertisements
Track Severe Weather on mobile